createdAt,value
2023-01-01T00:00:32.553Z,100787.53
2023-01-01T00:03:02.004Z,100790.02
2023-01-01T00:05:31.283Z,100798.73
2023-01-01T00:08:04.649Z,100781.35
2023-01-01T00:10:31.926Z,100794.77
2023-01-01T00:13:01.626Z,100811.11
2023-01-01T00:15:31.117Z,100822.56
2023-01-01T00:18:00.536Z,100805.80
2023-01-01T00:20:34.923Z,100791.80
2023-01-01T00:23:01.198Z,100803.53
2023-01-01T00:25:32.860Z,100799.91
2023-01-01T00:28:03.108Z,100796.09
2023-01-01T00:30:32.555Z,100807.22
2023-01-01T00:33:01.973Z,100802.56
2023-01-01T00:35:31.575Z,100813.65
2023-01-01T00:38:01.174Z,100802.92
2023-01-01T00:40:30.807Z,100797.94
2023-01-01T00:43:00.007Z,100800.03
2023-01-01T00:45:29.546Z,100817.09
2023-01-01T00:47:59.023Z,100823.72
2023-01-01T00:50:28.656Z,100830.39
2023-01-01T00:52:57.943Z,100828.38
2023-01-01T00:55:27.469Z,100823.70
2023-01-01T00:57:56.661Z,100810.94
2023-01-01T01:00:26.106Z,100826.05
2023-01-01T01:02:55.363Z,100818.74
2023-01-01T01:05:24.781Z,100813.23
2023-01-01T01:07:54.039Z,100820.34
2023-01-01T01:10:23.452Z,100809.03
2023-01-01T01:12:53.278Z,100814.11
2023-01-01T01:15:23.219Z,100802.69
2023-01-01T01:17:52.759Z,100806.59
2023-01-01T01:20:22.201Z,100801.66
2023-01-01T01:22:51.960Z,100818.89
2023-01-01T01:25:21.281Z,100814.73
2023-01-01T01:27:50.950Z,100819.17
2023-01-01T01:30:20.210Z,100813.41
2023-01-01T01:32:50.012Z,100828.59
2023-01-01T01:35:19.209Z,100822.66
2023-01-01T01:37:48.689Z,100817.63
2023-01-01T01:40:18.297Z,100834.61
2023-01-01T01:42:49.607Z,100828.73
2023-01-01T01:45:19.443Z,100835.28
2023-01-01T01:47:58.160Z,100831.09
2023-01-01T01:50:29.923Z,100833.03
2023-01-01T01:53:05.183Z,100848.69
2023-01-01T01:55:36.521Z,100842.35
2023-01-01T01:58:06.821Z,100852.63
2023-01-01T02:00:36.093Z,100864.59
2023-01-01T02:03:10.947Z,100872.84
2023-01-01T02:05:41.192Z,100872.28
2023-01-01T02:08:12.420Z,100868.82
2023-01-01T02:10:42.045Z,100869.16
2023-01-01T02:13:11.892Z,100862.00
2023-01-01T02:15:47.634Z,100849.86
2023-01-01T02:18:20.274Z,100856.23
2023-01-01T02:20:49.684Z,100853.58
2023-01-01T02:23:55.542Z,100862.90
2023-01-01T02:26:35.046Z,100876.78
2023-01-01T02:29:19.293Z,100866.33
2023-01-01T02:31:54.444Z,100875.48
2023-01-01T02:34:26.633Z,100881.64
2023-01-01T02:36:56.775Z,100892.55
2023-01-01T02:39:28.570Z,100881.12
2023-01-01T02:41:59.723Z,100885.89
2023-01-01T02:44:31.800Z,100884.17
2023-01-01T02:47:10.128Z,100880.95
2023-01-01T02:49:42.598Z,100882.31
2023-01-01T02:52:15.858Z,100900.52
2023-01-01T02:55:01.190Z,100894.39
2023-01-01T02:57:36.629Z,100888.50
2023-01-01T03:00:21.727Z,100893.58
2023-01-01T03:03:09.547Z,100887.27
2023-01-01T03:06:23.584Z,100901.78
2023-01-01T03:09:13.619Z,100889.13
2023-01-01T03:12:01.386Z,100905.23
2023-01-01T03:14:50.742Z,100896.71
2023-01-01T03:17:37.149Z,100903.73
2023-01-01T03:20:09.860Z,100906.27
2023-01-01T03:25:16.606Z,100902.70
2023-01-01T03:27:48.280Z,100912.28
2023-01-01T03:30:21.503Z,100921.86
2023-01-01T03:33:03.792Z,100925.22
2023-01-01T03:35:41.688Z,100925.70
2023-01-01T03:38:32.821Z,100930.89
2023-01-01T03:41:04.977Z,100930.33
2023-01-01T03:43:49.636Z,100926.48
2023-01-01T03:46:21.493Z,100938.08
2023-01-01T03:49:03.288Z,100937.97
2023-01-01T03:51:49.769Z,100946.48
2023-01-01T03:54:28.373Z,100936.50
2023-01-01T03:57:00.361Z,100961.66
2023-01-01T03:59:32.781Z,100957.98
2023-01-01T04:02:03.641Z,100963.73
2023-01-01T04:04:33.525Z,100979.47
2023-01-01T04:07:14.747Z,100974.52
2023-01-01T04:09:35.038Z,100982.73
2023-01-01T04:12:05.360Z,100982.02
2023-01-01T04:14:37.188Z,100991.67
2023-01-01T04:17:07.900Z,100995.22
2023-01-01T04:19:37.409Z,101002.47
2023-01-01T04:22:07.046Z,100995.29
2023-01-01T04:24:36.514Z,101006.97
2023-01-01T04:27:05.742Z,101023.02
2023-01-01T04:29:36.384Z,101034.77
2023-01-01T04:32:05.972Z,101034.99
2023-01-01T04:34:35.164Z,101032.10
2023-01-01T04:37:09.676Z,101036.30
2023-01-01T04:39:35.482Z,101040.92
2023-01-01T04:42:04.751Z,101057.03
2023-01-01T04:44:34.144Z,101042.39
2023-01-01T04:47:03.332Z,101046.25
2023-01-01T04:49:32.623Z,101057.35
2023-01-01T04:52:01.809Z,101041.98
2023-01-01T04:54:31.639Z,101057.64
2023-01-01T04:57:00.826Z,101068.66
2023-01-01T04:59:31.827Z,101050.44
2023-01-01T05:02:01.237Z,101046.39
2023-01-01T05:04:30.990Z,101048.50
2023-01-01T05:07:00.192Z,101050.41
2023-01-01T05:09:29.606Z,101048.45
2023-01-01T05:11:59.989Z,101047.34
2023-01-01T05:14:29.524Z,101063.33
2023-01-01T05:16:58.729Z,101078.78
2023-01-01T05:19:28.179Z,101088.70
2023-01-01T05:21:57.689Z,101100.94
2023-01-01T05:24:27.222Z,101092.59
2023-01-01T05:26:56.761Z,101100.10
2023-01-01T05:29:26.224Z,101103.41
2023-01-01T05:31:55.823Z,101098.97
2023-01-01T05:34:25.604Z,101109.73
2023-01-01T05:36:54.779Z,101116.44
2023-01-01T05:39:24.261Z,101105.71
2023-01-01T05:41:53.456Z,101104.30
2023-01-01T05:44:22.936Z,101107.27
2023-01-01T05:46:52.159Z,101117.50
2023-01-01T05:49:21.359Z,101125.43
2023-01-01T05:51:50.589Z,101127.45
2023-01-01T05:54:19.878Z,101127.94
2023-01-01T05:56:49.110Z,101128.25
2023-01-01T05:59:18.389Z,101125.00
2023-01-01T06:01:47.691Z,101137.38
2023-01-01T06:04:17.470Z,101150.32
2023-01-01T06:06:46.874Z,101153.06
2023-01-01T06:09:16.391Z,101155.50
2023-01-01T06:11:45.710Z,101161.19
2023-01-01T06:14:14.907Z,101160.00
2023-01-01T06:16:44.302Z,101171.72
2023-01-01T06:19:13.535Z,101179.03
2023-01-01T06:21:42.788Z,101191.28
2023-01-01T06:24:12.058Z,101194.05
2023-01-01T06:26:41.507Z,101205.20
2023-01-01T06:29:10.803Z,101195.33
2023-01-01T06:31:40.978Z,101190.69
2023-01-01T06:34:10.714Z,101203.86
2023-01-01T06:36:40.536Z,101205.30
2023-01-01T06:39:09.785Z,101220.84
2023-01-01T06:41:39.169Z,101222.38
2023-01-01T06:44:08.355Z,101219.11
2023-01-01T06:46:38.108Z,101235.45
2023-01-01T06:49:09.988Z,101217.92
2023-01-01T06:51:41.504Z,101225.08
2023-01-01T06:54:11.629Z,101230.28
2023-01-01T06:56:41.113Z,101222.66
2023-01-01T06:59:10.316Z,101248.56
2023-01-01T07:01:44.305Z,101249.88
2023-01-01T07:04:16.502Z,101260.88
2023-01-01T07:06:45.821Z,101267.24
2023-01-01T07:09:15.046Z,101274.28
2023-01-01T07:11:44.585Z,101277.98
2023-01-01T07:14:14.059Z,101286.02
2023-01-01T07:16:44.006Z,101277.27
2023-01-01T07:19:13.577Z,101285.90
2023-01-01T07:21:45.127Z,101287.78
2023-01-01T07:24:16.072Z,101291.05
2023-01-01T07:26:46.520Z,101303.03
2023-01-01T07:29:16.006Z,101302.41
2023-01-01T07:31:45.731Z,101308.05
2023-01-01T07:34:19.027Z,101290.80
2023-01-01T07:36:48.524Z,101316.91
2023-01-01T07:39:17.985Z,101329.70
2023-01-01T07:41:47.588Z,101322.30
2023-01-01T07:44:16.759Z,101339.91
2023-01-01T07:46:46.082Z,101360.97
2023-01-01T07:49:15.482Z,101360.53
2023-01-01T07:51:45.007Z,101354.88
2023-01-01T07:54:14.222Z,101345.17
2023-01-01T07:56:43.959Z,101360.64
2023-01-01T07:59:18.546Z,101373.09
2023-01-01T08:01:44.826Z,101364.94
2023-01-01T08:04:14.115Z,101359.66
2023-01-01T08:06:43.330Z,101356.30
2023-01-01T08:09:12.675Z,101372.12
2023-01-01T08:11:42.263Z,101367.21
2023-01-01T08:14:11.633Z,101372.12
2023-01-01T08:16:40.982Z,101383.14
2023-01-01T08:19:10.444Z,101397.30
2023-01-01T08:21:39.632Z,101393.09
2023-01-01T08:24:08.946Z,101391.91
2023-01-01T08:26:39.692Z,101385.30
2023-01-01T08:29:09.271Z,101390.57
2023-01-01T08:31:39.010Z,101398.98
2023-01-01T08:34:08.501Z,101391.78
2023-01-01T08:36:40.647Z,101388.69
2023-01-01T08:39:10.915Z,101400.09
2023-01-01T08:41:40.447Z,101400.77
2023-01-01T08:44:09.672Z,101409.91
2023-01-01T08:46:39.552Z,101418.42
2023-01-01T08:49:08.788Z,101421.28
2023-01-01T08:51:38.015Z,101425.11
2023-01-01T08:54:08.440Z,101431.56
2023-01-01T08:56:38.328Z,101425.59
2023-01-01T08:59:07.552Z,101422.58
2023-01-01T09:01:37.045Z,101415.73
2023-01-01T09:04:12.015Z,101426.89
2023-01-01T09:06:38.884Z,101437.78
2023-01-01T09:09:08.109Z,101451.58
2023-01-01T09:11:38.133Z,101453.25
2023-01-01T09:14:07.400Z,101452.03
2023-01-01T09:16:43.723Z,101451.47
2023-01-01T09:19:07.930Z,101454.31
2023-01-01T09:21:38.861Z,101443.08
2023-01-01T09:24:08.897Z,101439.48
2023-01-01T09:26:38.647Z,101446.06
2023-01-01T09:29:07.858Z,101464.91
2023-01-01T09:31:37.597Z,101469.22
2023-01-01T09:34:06.909Z,101469.94
2023-01-01T09:36:36.769Z,101462.52
2023-01-01T09:39:06.628Z,101461.02
2023-01-01T09:41:51.107Z,101463.59
2023-01-01T09:44:43.201Z,101469.21
2023-01-01T09:47:34.094Z,101467.98
2023-01-01T09:50:09.284Z,101473.47
2023-01-01T09:52:44.870Z,101479.68
2023-01-01T09:55:24.535Z,101476.90
2023-01-01T09:57:54.967Z,101477.52
2023-01-01T10:00:24.494Z,101480.41
2023-01-01T10:03:15.595Z,101495.64
2023-01-01T10:05:53.570Z,101497.56
2023-01-01T10:08:42.448Z,101476.47
2023-01-01T10:11:14.814Z,101486.36
2023-01-01T10:13:45.545Z,101495.73
2023-01-01T10:16:32.869Z,101495.70
2023-01-01T10:19:29.926Z,101498.55
2023-01-01T10:22:02.299Z,101505.25
2023-01-01T10:24:40.732Z,101490.14
2023-01-01T10:27:13.096Z,101470.63
2023-01-01T10:29:47.433Z,101479.70
2023-01-01T10:32:21.952Z,101469.80
2023-01-01T10:34:52.062Z,101481.62
2023-01-01T10:37:21.497Z,101468.41
2023-01-01T10:39:51.669Z,101463.87
2023-01-01T10:42:20.873Z,101470.17
2023-01-01T10:44:51.737Z,101468.46
2023-01-01T10:47:29.815Z,101479.05
2023-01-01T10:50:01.575Z,101481.54
2023-01-01T10:52:40.835Z,101490.22
2023-01-01T10:55:26.655Z,101499.86
2023-01-01T10:57:55.869Z,101498.95
2023-01-01T11:00:28.519Z,101513.45
2023-01-01T11:03:12.777Z,101510.48
2023-01-01T11:05:43.968Z,101527.68
2023-01-01T11:08:19.215Z,101523.22
2023-01-01T11:10:53.121Z,101509.44
2023-01-01T11:13:23.168Z,101522.54
2023-01-01T11:15:52.630Z,101515.81
2023-01-01T11:18:31.732Z,101513.52
2023-01-01T11:21:01.153Z,101518.08
2023-01-01T11:23:33.959Z,101504.14
2023-01-01T11:26:15.475Z,101507.63
2023-01-01T11:28:46.887Z,101497.38
2023-01-01T11:31:18.400Z,101480.47
2023-01-01T11:33:55.103Z,101478.05
2023-01-01T11:36:35.589Z,101488.32
2023-01-01T11:39:13.736Z,101478.09
2023-01-01T11:41:45.887Z,101485.17
2023-01-01T11:44:18.844Z,101483.98
2023-01-01T11:46:48.475Z,101480.81
2023-01-01T11:49:20.851Z,101500.80
2023-01-01T11:51:50.157Z,101511.44
2023-01-01T11:54:28.244Z,101519.45
2023-01-01T11:57:03.601Z,101518.60
2023-01-01T11:59:39.198Z,101517.76
2023-01-01T12:02:11.906Z,101500.48
2023-01-01T12:04:47.028Z,101514.34
2023-01-01T12:07:25.181Z,101515.15
2023-01-01T12:10:01.405Z,101509.71
2023-01-01T12:12:48.321Z,101491.86
2023-01-01T12:15:23.747Z,101508.13
2023-01-01T12:18:11.334Z,101507.28
2023-01-01T12:20:46.601Z,101505.14
2023-01-01T12:23:16.795Z,101516.72
2023-01-01T12:25:49.562Z,101502.55
2023-01-01T12:28:37.113Z,101505.53
2023-01-01T12:31:15.426Z,101499.74
2023-01-01T12:34:00.568Z,101486.18
2023-01-01T12:36:53.219Z,101483.77
2023-01-01T12:39:45.370Z,101481.16
2023-01-01T12:42:29.917Z,101468.43
2023-01-01T12:45:08.065Z,101468.43
2023-01-01T12:48:01.280Z,101468.47
2023-01-01T12:50:53.584Z,101471.86
2023-01-01T12:53:45.043Z,101485.84
2023-01-01T12:56:25.649Z,101486.52
2023-01-01T12:59:06.813Z,101482.50
2023-01-01T13:01:37.987Z,101476.88
2023-01-01T13:04:10.474Z,101468.09
2023-01-01T13:06:42.787Z,101463.37
2023-01-01T13:09:17.785Z,101466.99
2023-01-01T13:11:50.196Z,101465.86
2023-01-01T13:14:19.475Z,101475.55
2023-01-01T13:16:58.701Z,101476.92
2023-01-01T13:19:37.778Z,101474.75
2023-01-01T13:22:28.020Z,101481.35
2023-01-01T13:25:09.587Z,101478.27
2023-01-01T13:28:00.686Z,101478.34
2023-01-01T13:30:42.659Z,101475.97
2023-01-01T13:33:25.896Z,101482.22
2023-01-01T13:36:20.737Z,101485.40
2023-01-01T13:38:57.030Z,101481.23
2023-01-01T13:41:31.976Z,101479.31
2023-01-01T13:44:04.379Z,101485.08
2023-01-01T13:46:52.513Z,101482.67
2023-01-01T13:49:46.222Z,101480.16
2023-01-01T13:52:30.753Z,101477.91
2023-01-01T13:55:18.216Z,101486.53
2023-01-01T13:58:11.767Z,101483.95
2023-01-01T14:01:15.209Z,101485.48
2023-01-01T14:03:47.242Z,101487.92
2023-01-01T14:06:34.918Z,101490.22
2023-01-01T14:09:09.853Z,101488.05
2023-01-01T14:11:39.137Z,101492.88
2023-01-01T14:14:28.417Z,101492.73
2023-01-01T14:17:00.302Z,101482.81
2023-01-01T14:19:30.227Z,101488.36
2023-01-01T14:22:00.028Z,101479.23
2023-01-01T14:24:29.816Z,101477.41
2023-01-01T14:26:59.857Z,101473.83
2023-01-01T14:29:31.071Z,101474.68
2023-01-01T14:32:02.451Z,101468.94
2023-01-01T14:34:33.716Z,101458.02
2023-01-01T14:37:05.463Z,101462.92
2023-01-01T14:39:36.417Z,101458.83
2023-01-01T14:42:11.997Z,101457.38
2023-01-01T14:44:46.054Z,101456.31
2023-01-01T14:47:33.458Z,101456.10
2023-01-01T14:50:11.874Z,101454.15
2023-01-01T14:52:41.994Z,101454.53
2023-01-01T14:55:14.356Z,101465.09
2023-01-01T14:57:47.670Z,101471.11
2023-01-01T15:00:25.473Z,101462.46
2023-01-01T15:02:55.207Z,101464.20
2023-01-01T15:05:31.387Z,101465.70
2023-01-01T15:08:00.227Z,101458.03
2023-01-01T15:10:31.349Z,101466.59
2023-01-01T15:13:01.029Z,101468.73
2023-01-01T15:15:41.797Z,101477.41
2023-01-01T15:18:35.898Z,101479.93
2023-01-01T15:21:13.886Z,101478.05
2023-01-01T15:23:57.455Z,101464.72
2023-01-01T15:26:32.139Z,101464.46
2023-01-01T15:29:02.325Z,101467.95
2023-01-01T15:31:40.894Z,101472.77
2023-01-01T15:34:34.467Z,101471.10
2023-01-01T15:37:09.355Z,101481.28
2023-01-01T15:39:53.323Z,101482.13
2023-01-01T15:42:36.312Z,101488.27
2023-01-01T15:45:15.129Z,101491.03
2023-01-01T15:47:45.144Z,101491.03
2023-01-01T15:50:23.553Z,101498.07
2023-01-01T15:53:01.254Z,101495.30
2023-01-01T15:55:34.657Z,101487.64
2023-01-01T15:58:04.753Z,101488.02
2023-01-01T16:00:36.868Z,101495.21
2023-01-01T16:03:20.806Z,101474.69
2023-01-01T16:05:52.541Z,101474.30
2023-01-01T16:08:21.816Z,101477.58
2023-01-01T16:10:51.927Z,101467.61
2023-01-01T16:13:21.310Z,101465.70
2023-01-01T16:15:56.985Z,101473.43
2023-01-01T16:18:30.962Z,101468.59
2023-01-01T16:21:00.945Z,101462.36
2023-01-01T16:23:30.152Z,101463.19
2023-01-01T16:25:59.399Z,101465.38
2023-01-01T16:28:28.613Z,101472.23
2023-01-01T16:30:59.195Z,101469.12
2023-01-01T16:33:28.585Z,101470.09
2023-01-01T16:35:58.057Z,101466.98
2023-01-01T16:38:27.335Z,101461.01
2023-01-01T16:40:56.758Z,101455.86
2023-01-01T16:43:26.018Z,101470.48
2023-01-01T16:45:56.033Z,101458.62
2023-01-01T16:48:25.599Z,101456.73
2023-01-01T16:50:55.189Z,101453.73
2023-01-01T16:53:24.629Z,101447.51
2023-01-01T16:55:54.817Z,101447.39
2023-01-01T16:58:48.871Z,101441.78
2023-01-01T17:01:00.609Z,101446.45
2023-01-01T17:03:29.973Z,101445.09
2023-01-01T17:05:59.380Z,101435.27
2023-01-01T17:08:28.621Z,101434.80
2023-01-01T17:11:12.242Z,101429.66
2023-01-01T17:13:43.668Z,101424.95
2023-01-01T17:16:19.447Z,101429.26
2023-01-01T17:21:22.797Z,101428.56
2023-01-01T17:23:52.290Z,101424.47
2023-01-01T17:26:23.755Z,101421.34
2023-01-01T17:29:00.255Z,101422.31
2023-01-01T17:31:25.112Z,101410.42
2023-01-01T17:33:55.722Z,101407.55
2023-01-01T17:36:27.346Z,101406.36
2023-01-01T17:38:57.569Z,101402.17
2023-01-01T17:41:27.295Z,101396.06
2023-01-01T17:43:57.533Z,101399.05
2023-01-01T17:46:29.687Z,101394.51
2023-01-01T17:49:01.010Z,101394.36
2023-01-01T17:51:30.543Z,101390.91
2023-01-01T17:54:01.769Z,101390.17
2023-01-01T17:56:31.290Z,101389.45
2023-01-01T17:59:01.047Z,101388.86
2023-01-01T18:01:33.272Z,101388.48
2023-01-01T18:04:09.985Z,101388.48
2023-01-01T18:06:42.873Z,101384.53
2023-01-01T18:09:14.291Z,101385.50
2023-01-01T18:11:44.213Z,101382.63
2023-01-01T18:14:17.247Z,101381.78
2023-01-01T18:16:45.911Z,101382.86
2023-01-01T18:19:15.163Z,101376.98
2023-01-01T18:21:44.780Z,101368.38
2023-01-01T18:24:15.692Z,101361.53
2023-01-01T18:26:45.333Z,101360.48
2023-01-01T18:29:14.574Z,101350.19
2023-01-01T18:31:45.737Z,101342.41
2023-01-01T18:34:15.334Z,101338.80
2023-01-01T18:36:46.245Z,101335.94
2023-01-01T18:39:19.002Z,101328.74
2023-01-01T18:41:54.092Z,101315.20
2023-01-01T18:44:25.755Z,101313.53
2023-01-01T18:47:00.364Z,101318.45
2023-01-01T18:49:30.851Z,101320.35
2023-01-01T18:52:15.969Z,101311.25
2023-01-01T18:54:46.234Z,101306.45
2023-01-01T18:57:28.617Z,101303.83
2023-01-01T18:59:51.986Z,101303.36
2023-01-01T19:02:40.153Z,101298.56
2023-01-01T19:05:19.087Z,101301.19
2023-01-01T19:08:09.820Z,101302.16
2023-01-01T19:10:44.986Z,101293.53
2023-01-01T19:13:20.513Z,101301.58
2023-01-01T19:15:53.425Z,101296.78
2023-01-01T19:18:25.684Z,101292.48
2023-01-01T19:21:10.202Z,101290.66
2023-01-01T19:23:48.853Z,101290.90
2023-01-01T19:26:29.436Z,101288.27
2023-01-01T19:29:01.940Z,101280.02
2023-01-01T19:31:31.518Z,101284.32
2023-01-01T19:34:01.323Z,101283.97
2023-01-01T19:36:30.666Z,101275.72
2023-01-01T19:39:00.452Z,101272.71
2023-01-01T19:41:29.855Z,101274.03
2023-01-01T19:43:59.475Z,101266.02
2023-01-01T19:46:28.877Z,101257.89
2023-01-01T19:48:59.081Z,101286.13
2023-01-01T19:51:28.840Z,101269.14
2023-01-01T19:53:58.486Z,101260.66
2023-01-01T19:56:28.159Z,101257.76
2023-01-01T19:58:57.915Z,101236.96
2023-01-01T20:01:27.431Z,101241.14
2023-01-01T20:03:58.978Z,101247.72
2023-01-01T20:06:30.354Z,101232.89
2023-01-01T20:08:59.999Z,101243.41
2023-01-01T20:11:30.970Z,101241.14
2023-01-01T20:14:00.369Z,101243.42
2023-01-01T20:16:29.640Z,101241.26
2023-01-01T20:18:59.570Z,101233.83
2023-01-01T20:21:46.739Z,101243.55
2023-01-01T20:24:17.813Z,101231.44
2023-01-01T20:26:47.171Z,101235.62
2023-01-01T20:29:22.602Z,101232.52
2023-01-01T20:31:53.914Z,101225.36
2023-01-01T20:34:24.037Z,101212.78
2023-01-01T20:37:11.266Z,101208.72
2023-01-01T20:39:41.112Z,101209.06
2023-01-01T20:42:10.292Z,101202.72
2023-01-01T20:44:41.876Z,101195.20
2023-01-01T20:47:14.425Z,101187.66
2023-01-01T20:49:42.990Z,101188.74
2023-01-01T20:52:12.393Z,101181.20
2023-01-01T20:54:41.817Z,101187.55
2023-01-01T20:57:11.060Z,101181.08
2023-01-01T20:59:40.386Z,101176.05
2023-01-01T21:02:11.918Z,101170.06
2023-01-01T21:04:41.698Z,101167.19
2023-01-01T21:07:12.244Z,101156.31
2023-01-01T21:09:42.581Z,101155.96
2023-01-01T21:12:12.135Z,101149.84
2023-01-01T21:14:43.274Z,101151.05
2023-01-01T21:17:23.440Z,101151.89
2023-01-01T21:19:55.863Z,101147.34
2023-01-01T21:22:25.355Z,101136.81
2023-01-01T21:25:05.374Z,101130.58
2023-01-01T21:27:34.479Z,101124.00
2023-01-01T21:30:06.304Z,101121.98
2023-01-01T21:32:40.614Z,101120.30
2023-01-01T21:35:25.029Z,101120.41
2023-01-01T21:37:56.085Z,101116.84
2023-01-01T21:40:43.985Z,101104.88
2023-01-01T21:43:22.037Z,101104.63
2023-01-01T21:45:51.684Z,101102.12
2023-01-01T21:48:30.096Z,101101.39
2023-01-01T21:51:00.840Z,101100.67
2023-01-01T21:53:33.187Z,101096.00
2023-01-01T21:56:05.744Z,101099.14
2023-01-01T21:58:53.077Z,101101.17
2023-01-01T22:01:27.315Z,101094.48
2023-01-01T22:04:11.724Z,101093.98
2023-01-01T22:06:46.154Z,101093.50
2023-01-01T22:09:21.320Z,101085.47
2023-01-01T22:11:54.482Z,101081.77
2023-01-01T22:14:26.703Z,101068.36
2023-01-01T22:16:57.042Z,101059.38
2023-01-01T22:19:28.745Z,101060.44
2023-01-01T22:21:58.039Z,101067.02
2023-01-01T22:24:35.590Z,101068.69
2023-01-01T22:27:29.642Z,101064.95
2023-01-01T22:30:11.044Z,101068.53
2023-01-01T22:32:40.929Z,101064.23
2023-01-01T22:35:19.317Z,101063.39
2023-01-01T22:37:55.651Z,101066.23
2023-01-01T22:40:32.829Z,101057.71
2023-01-01T22:43:08.080Z,101067.99
2023-01-01T22:45:39.698Z,101065.83
2023-01-01T22:48:20.970Z,101053.13
2023-01-01T22:50:51.105Z,101055.75
2023-01-01T22:53:20.366Z,101061.02
2023-01-01T22:55:49.933Z,101061.02
2023-01-01T22:58:19.123Z,101052.61
2023-01-01T23:00:48.844Z,101049.98
2023-01-01T23:03:18.440Z,101051.38
2023-01-01T23:05:47.834Z,101047.67
2023-01-01T23:08:17.131Z,101029.61
2023-01-01T23:10:46.547Z,101027.92
2023-01-01T23:13:34.149Z,101026.86
2023-01-01T23:16:03.480Z,101022.78
2023-01-01T23:18:35.396Z,101026.34
2023-01-01T23:21:08.058Z,101027.91
2023-01-01T23:23:36.978Z,101019.50
2023-01-01T23:26:08.364Z,101021.88
2023-01-01T23:28:38.401Z,101015.92
2023-01-01T23:31:09.803Z,101021.92
2023-01-01T23:33:39.658Z,101020.48
2023-01-01T23:36:10.369Z,101021.92
2023-01-01T23:38:39.764Z,101013.63
2023-01-01T23:41:09.019Z,101008.45
2023-01-01T23:43:43.060Z,101010.01
2023-01-01T23:46:09.958Z,101006.78
2023-01-01T23:48:39.514Z,101011.92
2023-01-01T23:51:09.551Z,101015.86
2023-01-01T23:53:39.119Z,101009.87
2023-01-01T23:56:08.942Z,101000.66
2023-01-01T23:58:38.349Z,101001.45
